^^
Station Historical Data
Daily Summary for August 13, 2021 Units:  English    Metric   Both
Daily Weekly Monthly Yearly
  High: Low: Average:
Temperature: 78.5 °F 70.9 °F 74.8 °F
Dew Point: 73.9 °F 56.9 °F 64.8 °F
Humidity: 89% 51% 72%
Wind Speed: 5mph 0mph 2.3mph
Wind Gust: 12mph - -
Wind- - South
Pressure: 30.03 in 29.84 in -
Precipitation: 0.00 in    
 
 
Tabular Data for August 13, 2021
Time Temperature Dew Point Pressure Wind Wind Speed Wind Gust Humidity Rainfall Rate (Hourly) solar
00:00 78.5 °F 73.6 °F 29.85 in SW 3 mph 4 mph 85% 0.00 in 0 W/m2
00:05 78.4 °F 73.9 °F 29.85 in SW 4 mph 4 mph 86% 0.00 in 0 W/m2
00:10 78.3 °F 73.8 °F 29.84 in SW 4 mph 4 mph 86% 0.00 in 0 W/m2
00:15 78.2 °F 73.3 °F 29.85 in WSW 4 mph 4 mph 85% 0.00 in 0 W/m2
00:20 78.1 °F 73.6 °F 29.85 in SSW 4 mph 7 mph 86% 0.00 in 0 W/m2
00:25 78 °F 73.5 °F 29.85 in South 4 mph 7 mph 86% 0.00 in 0 W/m2
00:30 78 °F 73.5 °F 29.85 in SW 4 mph 12 mph 86% 0.00 in 0 W/m2
00:35 77.9 °F 73.4 °F 29.85 in WSW 4 mph 12 mph 86% 0.00 in 0 W/m2
00:40 77.9 °F 73.4 °F 29.85 in SSW 4 mph 4 mph 86% 0.00 in 0 W/m2
00:45 77.9 °F 73.4 °F 29.85 in SSW 4 mph 4 mph 86% 0.00 in 0 W/m2
00:50 77.9 °F 73.7 °F 29.86 in South 4 mph 7 mph 87% 0.00 in 0 W/m2
00:55 77.8 °F 73.6 °F 29.86 in SSW 4 mph 7 mph 87% 0.00 in 0 W/m2
01:00 77.7 °F 73.5 °F 29.86 in NW 4 mph 4 mph 87% 0.00 in 0 W/m2
01:05 77.7 °F 73.5 °F 29.86 in South 4 mph 8 mph 87% 0.00 in 0 W/m2
01:10 77.6 °F 73.4 °F 29.86 in SW 4 mph 4 mph 87% 0.00 in 0 W/m2
01:15 77.6 °F 73.4 °F 29.86 in SSW 4 mph 5 mph 87% 0.00 in 0 W/m2
01:20 77.5 °F 73.3 °F 29.86 in WSW 5 mph 5 mph 87% 0.00 in 0 W/m2
01:25 77.4 °F 73.2 °F 29.86 in SSW 5 mph 6 mph 87% 0.00 in 0 W/m2
01:30 77.4 °F 73.6 °F 29.86 in WNW 4 mph 4 mph 88% 0.00 in 0 W/m2
01:35 77.3 °F 73.5 °F 29.86 in SSW 4 mph 4 mph 88% 0.00 in 0 W/m2
01:40 77.2 °F 73.4 °F 29.86 in WSW 4 mph 4 mph 88% 0.00 in 0 W/m2
01:45 77.1 °F 73.3 °F 29.86 in SSW 5 mph 5 mph 88% 0.00 in 0 W/m2
01:50 77.1 °F 73.3 °F 29.86 in SW 5 mph 5 mph 88% 0.00 in 0 W/m2
01:55 76.9 °F 73.1 °F 29.86 in SSW 5 mph 5 mph 88% 0.00 in 0 W/m2
02:00 76.9 °F 73.1 °F 29.86 in SW 5 mph 5 mph 88% 0.00 in 0 W/m2
02:05 76.8 °F 73 °F 29.86 in SW 5 mph 5 mph 88% 0.00 in 0 W/m2
02:10 76.7 °F 72.9 °F 29.86 in West 5 mph 5 mph 88% 0.00 in 0 W/m2
02:15 76.6 °F 72.8 °F 29.86 in SSW 5 mph 5 mph 88% 0.00 in 0 W/m2
02:20 76.5 °F 72.7 °F 29.87 in West 4 mph 5 mph 88% 0.00 in 0 W/m2
02:25 76.4 °F 72.6 °F 29.87 in SW 4 mph 5 mph 88% 0.00 in 0 W/m2
02:30 76.4 °F 72.6 °F 29.86 in West 4 mph 4 mph 88% 0.00 in 0 W/m2
02:35 76.2 °F 72.4 °F 29.86 in WSW 4 mph 6 mph 88% 0.00 in 0 W/m2
02:40 76.2 °F 72.4 °F 29.86 in WSW 4 mph 4 mph 88% 0.00 in 0 W/m2
02:45 76.1 °F 72.3 °F 29.86 in WSW 4 mph 4 mph 88% 0.00 in 0 W/m2
02:50 76 °F 72.2 °F 29.86 in NW 4 mph 4 mph 88% 0.00 in 0 W/m2
02:55 76 °F 72.2 °F 29.86 in WSW 4 mph 4 mph 88% 0.00 in 0 W/m2
03:00 75.9 °F 72.1 °F 29.86 in South 4 mph 4 mph 88% 0.00 in 0 W/m2
03:05 75.8 °F 72 °F 29.86 in WSW 4 mph 4 mph 88% 0.00 in 0 W/m2
03:10 75.7 °F 71.9 °F 29.86 in SW 3 mph 4 mph 88% 0.00 in 0 W/m2
03:15 75.6 °F 72.1 °F 29.86 in NW 4 mph 4 mph 89% 0.00 in 0 W/m2
03:20 75.6 °F 72.1 °F 29.86 in West 4 mph 4 mph 89% 0.00 in 0 W/m2
03:25 75.5 °F 72 °F 29.86 in WNW 4 mph 5 mph 89% 0.00 in 0 W/m2
03:30 75.4 °F 71.9 °F 29.86 in West 4 mph 4 mph 89% 0.00 in 0 W/m2
03:35 75.4 °F 71.6 °F 29.86 in South 4 mph 4 mph 88% 0.00 in 0 W/m2
03:40 75.3 °F 71.5 °F 29.86 in West 3 mph 5 mph 88% 0.00 in 0 W/m2
03:45 75.2 °F 71.4 °F 29.86 in WSW 3 mph 5 mph 88% 0.00 in 0 W/m2
03:50 75.1 °F 71.6 °F 29.86 in West 3 mph 3 mph 89% 0.00 in 0 W/m2
03:55 75.1 °F 71.6 °F 29.86 in WNW 3 mph 3 mph 89% 0.00 in 0 W/m2
04:00 75.1 °F 71.6 °F 29.87 in West 3 mph 6 mph 89% 0.00 in 0 W/m2
04:05 75.1 °F 71.6 °F 29.87 in WSW 3 mph 6 mph 89% 0.00 in 0 W/m2
04:10 74.9 °F 71.4 °F 29.87 in West 3 mph 4 mph 89% 0.00 in 0 W/m2
04:15 74.9 °F 71.4 °F 29.87 in NNW 4 mph 4 mph 89% 0.00 in 0 W/m2
04:20 74.9 °F 71.4 °F 29.87 in West 3 mph 5 mph 89% 0.00 in 0 W/m2
04:25 74.9 °F 71.4 °F 29.87 in SW 3 mph 5 mph 89% 0.00 in 0 W/m2
04:30 74.8 °F 71.3 °F 29.87 in West 3 mph 3 mph 89% 0.00 in 0 W/m2
04:35 74.8 °F 71.3 °F 29.88 in WSW 4 mph 4 mph 89% 0.00 in 0 W/m2
04:40 74.7 °F 71.2 °F 29.88 in NW 4 mph 4 mph 89% 0.00 in 0 W/m2
04:45 74.7 °F 71.2 °F 29.88 in West 3 mph 4 mph 89% 0.00 in 0 W/m2
04:50 74.7 °F 71.2 °F 29.87 in WSW 3 mph 5 mph 89% 0.00 in 0 W/m2
04:55 74.7 °F 71.2 °F 29.88 in WSW 3 mph 7 mph 89% 0.00 in 0 W/m2
05:00 74.6 °F 70.8 °F 29.88 in WNW 3 mph 3 mph 88% 0.00 in 0 W/m2
05:05 74.6 °F 70.8 °F 29.88 in NW 3 mph 5 mph 88% 0.00 in 0 W/m2
05:10 74.4 °F 70.6 °F 29.88 in NW 3 mph 4 mph 88% 0.00 in 0 W/m2
05:15 74.2 °F 70.1 °F 29.88 in NNW 3 mph 5 mph 87% 0.00 in 0 W/m2
05:20 73.8 °F 69.3 °F 29.89 in NW 3 mph 3 mph 86% 0.00 in 0 W/m2
05:25 73.7 °F 68.9 °F 29.89 in West 2 mph 3 mph 85% 0.00 in 0 W/m2
05:30 73.4 °F 68.3 °F 29.89 in East 2 mph 2 mph 84% 0.00 in 0 W/m2
05:35 73 °F 67.2 °F 29.89 in East 2 mph 2 mph 82% 0.00 in 0 W/m2
05:40 72.9 °F 67.1 °F 29.89 in East 2 mph 4 mph 82% 0.00 in 0 W/m2
05:45 72.8 °F 67 °F 29.89 in ENE 2 mph 4 mph 82% 0.00 in 0 W/m2
05:50 72.7 °F 66.9 °F 29.89 in North 2 mph 2 mph 82% 0.00 in 0 W/m2
05:55 72.6 °F 66.8 °F 29.89 in NNE 2 mph 2 mph 82% 0.00 in 0 W/m2
06:00 72.3 °F 66.5 °F 29.90 in NW 2 mph 5 mph 82% 0.00 in 0 W/m2
06:05 72.2 °F 66.4 °F 29.90 in North 2 mph 5 mph 82% 0.00 in 0 W/m2
06:10 72 °F 66.2 °F 29.90 in ESE 2 mph 2 mph 82% 0.00 in 0 W/m2
06:15 71.9 °F 66.1 °F 29.90 in ESE 2 mph 2 mph 82% 0.00 in 0 W/m2
06:20 71.8 °F 66 °F 29.90 in SE 2 mph 2 mph 82% 0.00 in 0 W/m2
06:25 71.6 °F 65.1 °F 29.90 in NE 2 mph 2 mph 80% 0.00 in 5 W/m2
06:30 71.4 °F 64.5 °F 29.91 in ENE 2 mph 3 mph 79% 0.00 in 5 W/m2
06:35 71.2 °F 63.6 °F 29.91 in NNE 2 mph 3 mph 77% 0.00 in 5 W/m2
06:40 71.1 °F 62.8 °F 29.91 in ENE 2 mph 2 mph 75% 0.00 in 5 W/m2
06:45 71 °F 61.9 °F 29.91 in NNW 2 mph 3 mph 73% 0.00 in 7 W/m2
06:50 71 °F 61.5 °F 29.92 in NW 2 mph 2 mph 72% 0.00 in 5 W/m2
06:55 71 °F 61.5 °F 29.92 in ESE 2 mph 3 mph 72% 0.00 in 5 W/m2
07:00 71 °F 61.9 °F 29.92 in NE 2 mph 2 mph 73% 0.00 in 5 W/m2
07:05 71.1 °F 62 °F 29.92 in NW 2 mph 2 mph 73% 0.00 in 11 W/m2
07:10 71.1 °F 62 °F 29.92 in NNE 2 mph 3 mph 73% 0.00 in 14 W/m2
07:15 71.1 °F 62 °F 29.92 in ESE 2 mph 3 mph 73% 0.00 in 26 W/m2
07:20 71.1 °F 62 °F 29.92 in North 1 mph 1 mph 73% 0.00 in 33 W/m2
07:25 71.1 °F 62.4 °F 29.93 in East 1 mph 1 mph 74% 0.00 in 40 W/m2
07:30 71.1 °F 62.4 °F 29.93 in ENE 1 mph 3 mph 74% 0.00 in 44 W/m2
07:35 71.2 °F 62.5 °F 29.93 in East 1 mph 3 mph 74% 0.00 in 39 W/m2
07:40 71.1 °F 62.8 °F 29.93 in NNW 2 mph 2 mph 75% 0.00 in 39 W/m2
07:45 71.2 °F 63.2 °F 29.94 in ESE 2 mph 2 mph 76% 0.00 in 39 W/m2
07:50 71.2 °F 63.2 °F 29.94 in ENE 1 mph 1 mph 76% 0.00 in 46 W/m2
07:55 71.2 °F 63.2 °F 29.94 in East 2 mph 2 mph 76% 0.00 in 53 W/m2
08:00 71.2 °F 63.2 °F 29.94 in ENE 1 mph 1 mph 76% 0.00 in 56 W/m2
08:05 71.2 °F 62.9 °F 29.94 in NNE 2 mph 2 mph 75% 0.00 in 58 W/m2
08:10 71.2 °F 62.9 °F 29.94 in North 2 mph 2 mph 75% 0.00 in 70 W/m2
08:15 71.1 °F 62.4 °F 29.94 in NNW 2 mph 2 mph 74% 0.00 in 79 W/m2
08:20 71.2 °F 62.9 °F 29.94 in SSW 2 mph 2 mph 75% 0.00 in 74 W/m2
08:25 71.1 °F 62.8 °F 29.94 in NW 2 mph 5 mph 75% 0.00 in 72 W/m2
08:30 71.1 °F 62.4 °F 29.94 in ESE 2 mph 2 mph 74% 0.00 in 81 W/m2
08:35 71.1 °F 62.4 °F 29.94 in ENE 2 mph 3 mph 74% 0.00 in 79 W/m2
08:40 71 °F 62.3 °F 29.94 in ESE 2 mph 2 mph 74% 0.00 in 86 W/m2
08:45 71 °F 61.9 °F 29.94 in East 2 mph 2 mph 73% 0.00 in 81 W/m2
08:50 71 °F 61.9 °F 29.95 in NNE 2 mph 2 mph 73% 0.00 in 97 W/m2
08:55 71 °F 62.3 °F 29.95 in NE 2 mph 3 mph 74% 0.00 in 102 W/m2
09:00 71 °F 62.3 °F 29.95 in ENE 2 mph 2 mph 74% 0.00 in 113 W/m2
09:05 71 °F 61.9 °F 29.95 in East 2 mph 2 mph 73% 0.00 in 134 W/m2
09:10 71 °F 62.3 °F 29.95 in ENE 2 mph 2 mph 74% 0.00 in 121 W/m2
09:15 71 °F 62.3 °F 29.95 in NE 2 mph 2 mph 74% 0.00 in 107 W/m2
09:20 71 °F 62.3 °F 29.95 in North 2 mph 2 mph 74% 0.00 in 88 W/m2
09:25 71 °F 62.7 °F 29.95 in NE 2 mph 2 mph 75% 0.00 in 306 W/m2
09:30 71.1 °F 63.1 °F 29.95 in NE 1 mph 1 mph 76% 0.00 in 330 W/m2
09:35 71.1 °F 62.8 °F 29.95 in ENE 1 mph 1 mph 75% 0.00 in 359 W/m2
09:40 71.2 °F 62.9 °F 29.95 in East 2 mph 2 mph 75% 0.00 in 355 W/m2
09:45 71.3 °F 63 °F 29.95 in ENE 2 mph 2 mph 75% 0.00 in 399 W/m2
09:50 71.5 °F 63.2 °F 29.95 in WNW 2 mph 3 mph 75% 0.00 in 438 W/m2
09:55 71.6 °F 63.3 °F 29.95 in ESE 2 mph 3 mph 75% 0.00 in 485 W/m2
10:00 71.8 °F 63.4 °F 29.95 in NE 2 mph 4 mph 75% 0.00 in 448 W/m2
10:05 71.9 °F 63.5 °F 29.95 in NE 2 mph 4 mph 75% 0.00 in 450 W/m2
10:10 72.1 °F 63.4 °F 29.96 in NNE 2 mph 2 mph 74% 0.00 in 383 W/m2
10:15 72.1 °F 63 °F 29.96 in ENE 2 mph 2 mph 73% 0.00 in 276 W/m2
10:20 72.2 °F 63.1 °F 29.96 in ENE 1 mph 3 mph 73% 0.00 in 452 W/m2
10:25 72.3 °F 63.2 °F 29.96 in NNW 2 mph 3 mph 73% 0.00 in 478 W/m2
10:30 72.4 °F 63.3 °F 29.97 in NNW 2 mph 2 mph 73% 0.00 in 512 W/m2
10:35 72.5 °F 63 °F 29.97 in NNE 2 mph 2 mph 72% 0.00 in 561 W/m2
10:40 72.6 °F 63.1 °F 29.97 in NNW 2 mph 2 mph 72% 0.00 in 531 W/m2
10:50 72.9 °F 63.7 °F 29.97 in NNW 2 mph 2 mph 73% 0.00 in 610 W/m2
10:55 73 °F 63.8 °F 29.97 in NNW 2 mph 2 mph 73% 0.00 in 519 W/m2
11:00 73.1 °F 63.9 °F 29.97 in North 2 mph 2 mph 73% 0.00 in 526 W/m2
11:05 73.3 °F 64.1 °F 29.97 in North 2 mph 2 mph 73% 0.00 in 617 W/m2
11:10 73.3 °F 63.7 °F 29.97 in NW 2 mph 2 mph 72% 0.00 in 626 W/m2
11:15 73.4 °F 64.2 °F 29.97 in NE 2 mph 2 mph 73% 0.00 in 647 W/m2
11:20 73.4 °F 63.8 °F 29.97 in NNE 3 mph 3 mph 72% 0.00 in 650 W/m2
11:25 73.5 °F 64.3 °F 29.98 in ESE 2 mph 3 mph 73% 0.00 in 656 W/m2
11:30 73.5 °F 63.9 °F 29.98 in North 2 mph 3 mph 72% 0.00 in 657 W/m2
11:35 73.7 °F 64.1 °F 29.98 in NNE 2 mph 3 mph 72% 0.00 in 677 W/m2
11:40 73.8 °F 64.2 °F 29.98 in NNE 2 mph 4 mph 72% 0.00 in 686 W/m2
11:45 73.8 °F 64.2 °F 29.98 in ENE 2 mph 4 mph 72% 0.00 in 689 W/m2
11:50 73.8 °F 63.8 °F 29.98 in ENE 3 mph 3 mph 71% 0.00 in 698 W/m2
11:55 73.9 °F 63.5 °F 29.98 in East 3 mph 3 mph 70% 0.00 in 710 W/m2
12:00 73.9 °F 63.5 °F 29.98 in NNW 2 mph 4 mph 70% 0.00 in 724 W/m2
12:05 74 °F 62.8 °F 29.98 in North 3 mph 5 mph 68% 0.00 in 587 W/m2
12:10 74 °F 62.8 °F 29.98 in SW 3 mph 3 mph 68% 0.00 in 700 W/m2
12:15 74.1 °F 62.9 °F 29.98 in North 2 mph 4 mph 68% 0.00 in 744 W/m2
12:20 74.2 °F 63 °F 29.99 in NNW 2 mph 2 mph 68% 0.00 in 754 W/m2
12:25 74.2 °F 61.7 °F 29.99 in NW 2 mph 2 mph 65% 0.00 in 642 W/m2
12:30 73.8 °F 60.9 °F 29.98 in NNE 2 mph 2 mph 64% 0.00 in 659 W/m2
12:35 74.1 °F 61.6 °F 29.99 in North 2 mph 2 mph 65% 0.00 in 780 W/m2
12:40 74.4 °F 61.4 °F 29.99 in North 2 mph 2 mph 64% 0.00 in 756 W/m2
12:50 74.9 °F 61.9 °F 29.98 in NNW 2 mph 3 mph 64% 0.00 in 838 W/m2
12:55 75 °F 61.1 °F 29.98 in NNE 2 mph 3 mph 62% 0.00 in 278 W/m2
13:00 74.3 °F 60.4 °F 29.98 in East 2 mph 2 mph 62% 0.00 in 455 W/m2
13:05 74.8 °F 61.4 °F 29.98 in East 2 mph 2 mph 63% 0.00 in 798 W/m2
13:10 74.9 °F 61.5 °F 29.98 in ESE 2 mph 2 mph 63% 0.00 in 828 W/m2
13:15 75.5 °F 62 °F 29.98 in NNE 2 mph 2 mph 63% 0.00 in 940 W/m2
13:20 75.7 °F 61.3 °F 29.98 in NW 2 mph 2 mph 61% 0.00 in 1023 W/m2
13:25 75.5 °F 61.1 °F 29.98 in NE 2 mph 2 mph 61% 0.00 in 494 W/m2
13:30 74.9 °F 60.1 °F 29.98 in NE 2 mph 2 mph 60% 0.00 in 334 W/m2
13:35 74.8 °F 60.4 °F 29.98 in North 2 mph 3 mph 61% 0.00 in 519 W/m2
13:40 74.2 °F 59.4 °F 29.98 in NE 2 mph 2 mph 60% 0.00 in 301 W/m2
13:45 74.2 °F 60.3 °F 29.98 in NNW 2 mph 3 mph 62% 0.00 in 396 W/m2
13:50 74.3 °F 60.4 °F 29.98 in East 2 mph 2 mph 62% 0.00 in 418 W/m2
13:55 74.5 °F 60.6 °F 29.98 in ENE 2 mph 2 mph 62% 0.00 in 510 W/m2
14:00 74.7 °F 60.4 °F 29.98 in WNW 2 mph 2 mph 61% 0.00 in 916 W/m2
14:10 74.8 °F 59.5 °F 29.98 in NE 2 mph 2 mph 59% 0.00 in 387 W/m2
14:15 74.6 °F 59.8 °F 29.99 in NW 1 mph 2 mph 60% 0.00 in 343 W/m2
14:20 74.4 °F 59.6 °F 29.99 in ENE 1 mph 1 mph 60% 0.00 in 508 W/m2
14:25 74.5 °F 59.7 °F 29.99 in NE 1 mph 1 mph 60% 0.00 in 346 W/m2
14:30 74.6 °F 59.8 °F 29.99 in NE 1 mph 1 mph 60% 0.00 in 396 W/m2
14:35 75.1 °F 59.8 °F 29.99 in SE 1 mph 1 mph 59% 0.00 in 376 W/m2
14:40 74.9 °F 59.1 °F 29.99 in ESE 1 mph 1 mph 58% 0.00 in 380 W/m2
14:45 74.5 °F 59.2 °F 29.99 in South 1 mph 1 mph 59% 0.00 in 334 W/m2
14:50 74.5 °F 59.7 °F 29.99 in SSE 1 mph 1 mph 60% 0.00 in 334 W/m2
14:55 74.7 °F 59.9 °F 29.99 in SE 1 mph 2 mph 60% 0.00 in 304 W/m2
15:00 74.9 °F 60.5 °F 29.99 in SW 1 mph 1 mph 61% 0.00 in 230 W/m2
15:05 75 °F 60.2 °F 29.99 in NE 1 mph 1 mph 60% 0.00 in 221 W/m2
15:10 75.1 °F 59.8 °F 29.99 in SE 1 mph 1 mph 59% 0.00 in 251 W/m2
15:15 75.2 °F 60.4 °F 29.98 in South 1 mph 1 mph 60% 0.00 in 306 W/m2
15:20 75.3 °F 60.5 °F 29.99 in South 1 mph 1 mph 60% 0.00 in 323 W/m2
15:25 75.5 °F 60.6 °F 29.98 in South 1 mph 1 mph 60% 0.00 in 323 W/m2
15:30 75.9 °F 61 °F 29.98 in SSE 1 mph 1 mph 60% 0.00 in 847 W/m2
15:35 76.1 °F 61.2 °F 29.98 in East 1 mph 1 mph 60% 0.00 in 357 W/m2
15:40 76.3 °F 60.9 °F 29.98 in SSW 1 mph 1 mph 59% 0.00 in 357 W/m2
15:45 76.4 °F 61.5 °F 29.98 in East 1 mph 1 mph 60% 0.00 in 482 W/m2
15:50 76.4 °F 61 °F 29.97 in North 1 mph 1 mph 59% 0.00 in 752 W/m2
15:55 76.4 °F 62 °F 29.97 in SE 1 mph 2 mph 61% 0.00 in 555 W/m2
16:00 76.4 °F 61.5 °F 29.97 in ESE 1 mph 1 mph 60% 0.00 in 722 W/m2
16:05 76.5 °F 61.6 °F 29.97 in SSE 1 mph 1 mph 60% 0.00 in 701 W/m2
16:10 76.5 °F 62 °F 29.97 in SE 1 mph 1 mph 61% 0.00 in 673 W/m2
16:15 76.5 °F 63 °F 29.97 in ESE 1 mph 1 mph 63% 0.00 in 666 W/m2
16:20 76.7 °F 62.2 °F 29.97 in SE 1 mph 1 mph 61% 0.00 in 652 W/m2
16:25 76.9 °F 62.4 °F 29.97 in NNE 1 mph 2 mph 61% 0.00 in 640 W/m2
16:30 77.1 °F 63.1 °F 29.97 in North 1 mph 1 mph 62% 0.00 in 650 W/m2
16:35 77.3 °F 63.7 °F 29.97 in SE 1 mph 1 mph 63% 0.00 in 640 W/m2
16:40 77.5 °F 63.5 °F 29.97 in NE 1 mph 1 mph 62% 0.00 in 603 W/m2
16:45 77.7 °F 62.2 °F 29.97 in NW 1 mph 1 mph 59% 0.00 in 599 W/m2
16:50 77.9 °F 62.9 °F 29.96 in WNW 1 mph 1 mph 60% 0.00 in 594 W/m2
16:55 78 °F 63 °F 29.96 in East 1 mph 1 mph 60% 0.00 in 582 W/m2
17:00 78.1 °F 63.1 °F 29.96 in NNW 1 mph 2 mph 60% 0.00 in 568 W/m2
17:05 78.1 °F 62.6 °F 29.96 in SSW 1 mph 2 mph 59% 0.00 in 557 W/m2
17:10 78 °F 62.5 °F 29.96 in South 1 mph 1 mph 59% 0.00 in 545 W/m2
17:15 78.1 °F 62.6 °F 29.96 in SW 1 mph 4 mph 59% 0.00 in 538 W/m2
17:20 78.2 °F 62.2 °F 29.96 in NW 2 mph 2 mph 58% 0.00 in 524 W/m2
17:25 78.3 °F 61.8 °F 29.96 in SW 2 mph 2 mph 57% 0.00 in 512 W/m2
17:30 78.4 °F 62.4 °F 29.96 in SSW 2 mph 2 mph 58% 0.00 in 497 W/m2
17:35 78.4 °F 62.9 °F 29.96 in SW 2 mph 2 mph 59% 0.00 in 487 W/m2
17:40 78.3 °F 63.3 °F 29.96 in NW 2 mph 4 mph 60% 0.00 in 473 W/m2
17:45 78.3 °F 63.7 °F 29.95 in SW 2 mph 4 mph 61% 0.00 in 461 W/m2
17:50 78.2 °F 63.2 °F 29.95 in North 2 mph 2 mph 60% 0.00 in 446 W/m2
17:55 78.2 °F 63.6 °F 29.95 in WSW 2 mph 2 mph 61% 0.00 in 434 W/m2
18:00 78.1 °F 63.1 °F 29.95 in SSW 2 mph 3 mph 60% 0.00 in 420 W/m2
18:05 78.1 °F 64 °F 29.95 in West 2 mph 3 mph 62% 0.00 in 404 W/m2
18:10 78.1 °F 64 °F 29.95 in SSW 2 mph 6 mph 62% 0.00 in 390 W/m2
18:15 78 °F 63.9 °F 29.95 in WSW 3 mph 6 mph 62% 0.00 in 376 W/m2
18:20 78 °F 63.9 °F 29.95 in SW 3 mph 6 mph 62% 0.00 in 360 W/m2
18:25 77.9 °F 63.4 °F 29.95 in WNW 2 mph 6 mph 61% 0.00 in 346 W/m2
18:30 77.8 °F 63.3 °F 29.95 in WNW 2 mph 4 mph 61% 0.00 in 132 W/m2
18:35 77.7 °F 63.2 °F 29.96 in SSW 2 mph 4 mph 61% 0.00 in 318 W/m2
18:40 77.7 °F 63.6 °F 29.96 in SE 2 mph 3 mph 62% 0.00 in 178 W/m2
18:45 77.7 °F 63.6 °F 29.96 in SSW 2 mph 3 mph 62% 0.00 in 79 W/m2
18:50 77.6 °F 63.5 °F 29.96 in NW 2 mph 3 mph 62% 0.00 in 186 W/m2
18:55 77.6 °F 63.1 °F 29.96 in West 2 mph 3 mph 61% 0.00 in 46 W/m2
19:00 77.5 °F 63 °F 29.96 in SW 2 mph 2 mph 61% 0.00 in 74 W/m2
19:05 77.5 °F 63 °F 29.97 in NW 2 mph 4 mph 61% 0.00 in 70 W/m2
19:10 77.4 °F 62.9 °F 29.97 in NW 3 mph 3 mph 61% 0.00 in 49 W/m2
19:15 77.4 °F 63.4 °F 29.97 in South 2 mph 3 mph 62% 0.00 in 49 W/m2
19:20 77.4 °F 62.9 °F 29.97 in North 2 mph 2 mph 61% 0.00 in 44 W/m2
19:25 77.3 °F 62.3 °F 29.96 in NW 2 mph 3 mph 60% 0.00 in 46 W/m2
19:30 77.2 °F 60.3 °F 29.96 in NNW 2 mph 5 mph 56% 0.00 in 44 W/m2
19:35 77.1 °F 59.2 °F 29.96 in WNW 3 mph 5 mph 54% 0.00 in 39 W/m2
19:40 77 °F 59.6 °F 29.97 in NW 3 mph 3 mph 55% 0.00 in 62 W/m2
19:45 76.9 °F 59 °F 29.97 in SE 2 mph 3 mph 54% 0.00 in 114 W/m2
19:50 76.8 °F 58.9 °F 29.97 in North 2 mph 2 mph 54% 0.00 in 90 W/m2
19:55 76.7 °F 57.2 °F 29.97 in West 2 mph 5 mph 51% 0.00 in 30 W/m2
20:00 76.7 °F 57.2 °F 29.97 in West 3 mph 3 mph 51% 0.00 in 26 W/m2
20:05 76.5 °F 57 °F 29.97 in NW 3 mph 5 mph 51% 0.00 in 30 W/m2
20:10 76.4 °F 56.9 °F 29.97 in NNW 3 mph 6 mph 51% 0.00 in 21 W/m2
20:15 76.4 °F 60.5 °F 29.97 in NNW 3 mph 6 mph 58% 0.00 in 18 W/m2
20:20 76.4 °F 61 °F 29.97 in WNW 2 mph 2 mph 59% 0.00 in 14 W/m2
20:25 76.2 °F 60.3 °F 29.98 in NNW 2 mph 2 mph 58% 0.00 in 11 W/m2
20:30 76 °F 59.7 °F 29.98 in WNW 2 mph 2 mph 57% 0.00 in 9 W/m2
20:35 75.9 °F 60.1 °F 29.97 in NW 2 mph 2 mph 58% 0.00 in 7 W/m2
20:40 75.8 °F 60 °F 29.98 in NW 1 mph 1 mph 58% 0.00 in 5 W/m2
20:45 75.6 °F 60.3 °F 29.98 in NE 1 mph 3 mph 59% 0.00 in 0 W/m2
20:50 75.5 °F 60.6 °F 29.98 in East 1 mph 1 mph 60% 0.00 in 0 W/m2
20:55 75.4 °F 61.5 °F 29.98 in East 1 mph 1 mph 62% 0.00 in 0 W/m2
21:00 75.3 °F 62.3 °F 29.98 in NW 1 mph 1 mph 64% 0.00 in 0 W/m2
21:10 75 °F 62 °F 29.99 in North 1 mph 1 mph 64% 0.00 in 0 W/m2
21:15 74.9 °F 62.3 °F 29.99 in Calm   1 mph 65% 0.00 in 0 W/m2
21:20 74.7 °F 62.6 °F 29.99 in NE 1 mph 1 mph 66% 0.00 in 0 W/m2
21:25 74.6 °F 62.9 °F 30.00 in ENE 1 mph 1 mph 67% 0.00 in 0 W/m2
21:30 74.3 °F 62.6 °F 30.00 in ESE 1 mph 1 mph 67% 0.00 in 0 W/m2
21:35 74.1 °F 62.9 °F 30.00 in SW 1 mph 1 mph 68% 0.00 in 0 W/m2
21:40 73.9 °F 63.1 °F 30.01 in ENE 1 mph 1 mph 69% 0.00 in 0 W/m2
21:45 73.6 °F 63.2 °F 30.01 in East 1 mph 1 mph 70% 0.00 in 0 W/m2
21:50 73.3 °F 62.9 °F 30.01 in NNW 1 mph 1 mph 70% 0.00 in 0 W/m2
22:00 72.8 °F 62.4 °F 30.02 in SSE 1 mph 1 mph 70% 0.00 in 0 W/m2
22:05 72.5 °F 63.4 °F 30.02 in NE 2 mph 2 mph 73% 0.00 in 0 W/m2
22:10 72.2 °F 63.4 °F 30.02 in East 2 mph 2 mph 74% 0.00 in 0 W/m2
22:15 71.9 °F 63.5 °F 30.03 in SW 2 mph 2 mph 75% 0.00 in 0 W/m2
22:20 71.7 °F 63.7 °F 30.03 in ESE 2 mph 2 mph 76% 0.00 in 0 W/m2
22:25 71.4 °F 64.2 °F 30.03 in SE 1 mph 2 mph 78% 0.00 in 0 W/m2
22:30 71.2 °F 64 °F 30.03 in East 1 mph 1 mph 78% 0.00 in 0 W/m2
22:35 71 °F 63.4 °F 30.03 in East 1 mph 3 mph 77% 0.00 in 0 W/m2
22:40 70.9 °F 63.3 °F 30.03 in SE 1 mph 1 mph 77% 0.00 in 0 W/m2
Sand Point, Michigan, USA
Compliments of Weather Underground - 2 mb